sensor_id;sensor_type;location;lat;lon;timestamp;P1;durP1;ratioP1;P2;durP2;ratioP2
52414;SDS011;38340;52.964;6.086;2023-11-21T00:00:18;25.80;;;11.57;;
52414;SDS011;38340;52.964;6.086;2023-11-21T00:02:45;25.98;;;11.75;;
52414;SDS011;38340;52.964;6.086;2023-11-21T00:05:11;33.75;;;12.25;;
52414;SDS011;38340;52.964;6.086;2023-11-21T00:07:39;34.80;;;11.65;;
52414;SDS011;38340;52.964;6.086;2023-11-21T00:10:09;29.70;;;11.38;;
52414;SDS011;38340;52.964;6.086;2023-11-21T00:12:35;33.58;;;11.50;;
52414;SDS011;38340;52.964;6.086;2023-11-21T00:15:02;28.02;;;11.07;;
52414;SDS011;38340;52.964;6.086;2023-11-21T00:17:30;28.63;;;10.88;;
52414;SDS011;38340;52.964;6.086;2023-11-21T00:19:56;27.83;;;11.50;;
52414;SDS011;38340;52.964;6.086;2023-11-21T00:22:21;26.35;;;10.60;;
52414;SDS011;38340;52.964;6.086;2023-11-21T00:24:47;28.15;;;10.40;;
52414;SDS011;38340;52.964;6.086;2023-11-21T00:27:13;26.25;;;11.65;;
52414;SDS011;38340;52.964;6.086;2023-11-21T00:29:39;30.08;;;10.63;;
52414;SDS011;38340;52.964;6.086;2023-11-21T00:32:05;27.65;;;10.48;;
52414;SDS011;38340;52.964;6.086;2023-11-21T00:34:32;25.20;;;11.77;;
52414;SDS011;38340;52.964;6.086;2023-11-21T00:36:58;26.20;;;11.40;;
52414;SDS011;38340;52.964;6.086;2023-11-21T00:39:23;31.45;;;11.43;;
52414;SDS011;38340;52.964;6.086;2023-11-21T00:41:50;26.55;;;10.95;;
52414;SDS011;38340;52.964;6.086;2023-11-21T00:44:16;31.70;;;12.80;;
52414;SDS011;38340;52.964;6.086;2023-11-21T00:46:42;30.25;;;11.23;;
52414;SDS011;38340;52.964;6.086;2023-11-21T00:49:08;25.35;;;11.02;;
52414;SDS011;38340;52.964;6.086;2023-11-21T00:51:33;31.77;;;11.43;;
52414;SDS011;38340;52.964;6.086;2023-11-21T00:54:00;30.05;;;11.13;;
52414;SDS011;38340;52.964;6.086;2023-11-21T00:56:26;31.13;;;11.18;;
52414;SDS011;38340;52.964;6.086;2023-11-21T00:58:52;33.25;;;12.10;;
52414;SDS011;38340;52.964;6.086;2023-11-21T01:01:18;26.60;;;11.30;;
52414;SDS011;38340;52.964;6.086;2023-11-21T01:03:48;22.50;;;10.27;;
52414;SDS011;38340;52.964;6.086;2023-11-21T01:06:14;29.42;;;11.77;;
52414;SDS011;38340;52.964;6.086;2023-11-21T01:08:40;31.27;;;11.55;;
52414;SDS011;38340;52.964;6.086;2023-11-21T01:11:06;24.40;;;10.82;;
52414;SDS011;38340;52.964;6.086;2023-11-21T01:13:37;31.50;;;12.15;;
52414;SDS011;38340;52.964;6.086;2023-11-21T01:16:04;30.50;;;10.38;;
52414;SDS011;38340;52.964;6.086;2023-11-21T01:18:31;27.02;;;9.85;;
52414;SDS011;38340;52.964;6.086;2023-11-21T01:20:57;27.98;;;10.77;;
52414;SDS011;38340;52.964;6.086;2023-11-21T01:23:24;27.30;;;10.73;;
52414;SDS011;38340;52.964;6.086;2023-11-21T01:25:50;31.33;;;10.48;;
52414;SDS011;38340;52.964;6.086;2023-11-21T01:28:16;36.05;;;11.40;;
52414;SDS011;38340;52.964;6.086;2023-11-21T01:30:42;26.35;;;10.20;;
52414;SDS011;38340;52.964;6.086;2023-11-21T01:33:09;29.00;;;10.88;;
52414;SDS011;38340;52.964;6.086;2023-11-21T01:35:35;27.48;;;11.15;;
52414;SDS011;38340;52.964;6.086;2023-11-21T01:38:01;26.85;;;11.13;;
52414;SDS011;38340;52.964;6.086;2023-11-21T01:40:26;29.95;;;11.13;;
52414;SDS011;38340;52.964;6.086;2023-11-21T01:42:53;26.40;;;10.55;;
52414;SDS011;38340;52.964;6.086;2023-11-21T01:45:19;36.40;;;11.93;;
52414;SDS011;38340;52.964;6.086;2023-11-21T01:47:45;29.33;;;11.20;;
52414;SDS011;38340;52.964;6.086;2023-11-21T01:50:13;25.95;;;10.65;;
52414;SDS011;38340;52.964;6.086;2023-11-21T01:52:41;34.17;;;11.65;;
52414;SDS011;38340;52.964;6.086;2023-11-21T01:55:08;30.92;;;11.15;;
52414;SDS011;38340;52.964;6.086;2023-11-21T01:57:35;35.15;;;11.82;;
52414;SDS011;38340;52.964;6.086;2023-11-21T02:00:02;25.58;;;10.70;;
52414;SDS011;38340;52.964;6.086;2023-11-21T02:02:46;30.10;;;11.35;;
52414;SDS011;38340;52.964;6.086;2023-11-21T02:05:14;28.25;;;10.73;;
52414;SDS011;38340;52.964;6.086;2023-11-21T02:07:43;21.85;;;9.50;;
52414;SDS011;38340;52.964;6.086;2023-11-21T02:10:10;23.23;;;10.18;;
52414;SDS011;38340;52.964;6.086;2023-11-21T02:12:39;22.52;;;10.13;;
52414;SDS011;38340;52.964;6.086;2023-11-21T02:15:07;26.92;;;10.93;;
52414;SDS011;38340;52.964;6.086;2023-11-21T02:17:43;24.35;;;10.40;;
52414;SDS011;38340;52.964;6.086;2023-11-21T02:20:12;23.17;;;10.38;;
52414;SDS011;38340;52.964;6.086;2023-11-21T02:22:42;24.58;;;10.15;;
52414;SDS011;38340;52.964;6.086;2023-11-21T02:25:11;34.65;;;10.38;;
52414;SDS011;38340;52.964;6.086;2023-11-21T02:27:37;34.55;;;12.30;;
52414;SDS011;38340;52.964;6.086;2023-11-21T02:30:03;27.23;;;11.43;;
52414;SDS011;38340;52.964;6.086;2023-11-21T02:32:30;33.28;;;11.07;;
52414;SDS011;38340;52.964;6.086;2023-11-21T02:34:56;30.13;;;11.50;;
52414;SDS011;38340;52.964;6.086;2023-11-21T02:37:26;24.45;;;10.60;;
52414;SDS011;38340;52.964;6.086;2023-11-21T02:39:52;27.75;;;10.35;;
52414;SDS011;38340;52.964;6.086;2023-11-21T02:42:18;29.65;;;11.10;;
52414;SDS011;38340;52.964;6.086;2023-11-21T02:44:43;27.23;;;12.00;;
52414;SDS011;38340;52.964;6.086;2023-11-21T02:47:09;33.15;;;11.27;;
52414;SDS011;38340;52.964;6.086;2023-11-21T02:49:35;26.90;;;10.60;;
52414;SDS011;38340;52.964;6.086;2023-11-21T02:52:01;23.33;;;10.68;;
52414;SDS011;38340;52.964;6.086;2023-11-21T02:54:27;26.67;;;10.43;;
52414;SDS011;38340;52.964;6.086;2023-11-21T02:56:52;34.25;;;9.48;;
52414;SDS011;38340;52.964;6.086;2023-11-21T02:59:18;30.80;;;10.43;;
52414;SDS011;38340;52.964;6.086;2023-11-21T03:01:44;28.75;;;10.10;;
52414;SDS011;38340;52.964;6.086;2023-11-21T03:04:11;26.33;;;10.38;;
52414;SDS011;38340;52.964;6.086;2023-11-21T03:06:42;21.70;;;8.63;;
52414;SDS011;38340;52.964;6.086;2023-11-21T03:09:09;32.22;;;10.30;;
52414;SDS011;38340;52.964;6.086;2023-11-21T03:11:35;24.40;;;9.80;;
52414;SDS011;38340;52.964;6.086;2023-11-21T03:14:00;23.15;;;10.30;;
52414;SDS011;38340;52.964;6.086;2023-11-21T03:16:26;28.25;;;10.35;;
52414;SDS011;38340;52.964;6.086;2023-11-21T03:18:51;25.33;;;9.25;;
52414;SDS011;38340;52.964;6.086;2023-11-21T03:21:17;18.13;;;9.30;;
52414;SDS011;38340;52.964;6.086;2023-11-21T03:23:44;25.95;;;9.13;;
52414;SDS011;38340;52.964;6.086;2023-11-21T03:26:13;22.90;;;9.30;;
52414;SDS011;38340;52.964;6.086;2023-11-21T03:28:39;29.48;;;9.90;;
52414;SDS011;38340;52.964;6.086;2023-11-21T03:31:04;27.83;;;9.40;;
52414;SDS011;38340;52.964;6.086;2023-11-21T03:33:31;24.50;;;9.00;;
52414;SDS011;38340;52.964;6.086;2023-11-21T03:35:57;20.02;;;8.98;;
52414;SDS011;38340;52.964;6.086;2023-11-21T03:38:23;30.73;;;10.50;;
52414;SDS011;38340;52.964;6.086;2023-11-21T03:40:49;17.95;;;8.30;;
52414;SDS011;38340;52.964;6.086;2023-11-21T03:43:15;21.55;;;9.02;;
52414;SDS011;38340;52.964;6.086;2023-11-21T03:45:41;22.30;;;9.90;;
52414;SDS011;38340;52.964;6.086;2023-11-21T03:48:07;23.90;;;9.10;;
52414;SDS011;38340;52.964;6.086;2023-11-21T03:50:34;22.17;;;8.77;;
52414;SDS011;38340;52.964;6.086;2023-11-21T03:53:00;22.90;;;9.85;;
52414;SDS011;38340;52.964;6.086;2023-11-21T03:55:25;24.80;;;9.85;;
52414;SDS011;38340;52.964;6.086;2023-11-21T03:57:51;22.77;;;8.52;;
52414;SDS011;38340;52.964;6.086;2023-11-21T04:00:17;28.15;;;9.85;;
52414;SDS011;38340;52.964;6.086;2023-11-21T04:02:45;24.08;;;9.40;;
52414;SDS011;38340;52.964;6.086;2023-11-21T04:05:11;25.85;;;8.85;;
52414;SDS011;38340;52.964;6.086;2023-11-21T04:07:37;24.20;;;9.18;;
52414;SDS011;38340;52.964;6.086;2023-11-21T04:10:04;20.88;;;8.25;;
52414;SDS011;38340;52.964;6.086;2023-11-21T04:12:33;20.50;;;8.93;;
52414;SDS011;38340;52.964;6.086;2023-11-21T04:14:59;23.55;;;8.85;;
52414;SDS011;38340;52.964;6.086;2023-11-21T04:17:25;23.58;;;8.77;;
52414;SDS011;38340;52.964;6.086;2023-11-21T04:19:51;23.48;;;8.80;;
52414;SDS011;38340;52.964;6.086;2023-11-21T04:22:16;24.08;;;8.90;;
52414;SDS011;38340;52.964;6.086;2023-11-21T04:24:42;27.52;;;10.30;;
52414;SDS011;38340;52.964;6.086;2023-11-21T04:27:08;26.25;;;9.35;;
52414;SDS011;38340;52.964;6.086;2023-11-21T04:29:33;29.77;;;10.90;;
52414;SDS011;38340;52.964;6.086;2023-11-21T04:32:00;27.40;;;11.13;;
52414;SDS011;38340;52.964;6.086;2023-11-21T04:34:27;31.70;;;12.68;;
52414;SDS011;38340;52.964;6.086;2023-11-21T04:36:56;39.65;;;14.13;;
52414;SDS011;38340;52.964;6.086;2023-11-21T04:39:22;42.85;;;14.10;;
52414;SDS011;38340;52.964;6.086;2023-11-21T04:41:47;36.17;;;13.88;;
52414;SDS011;38340;52.964;6.086;2023-11-21T04:44:13;34.58;;;14.68;;
52414;SDS011;38340;52.964;6.086;2023-11-21T04:46:41;47.20;;;15.77;;
52414;SDS011;38340;52.964;6.086;2023-11-21T04:49:07;36.72;;;14.95;;
52414;SDS011;38340;52.964;6.086;2023-11-21T04:51:32;51.00;;;16.25;;
52414;SDS011;38340;52.964;6.086;2023-11-21T04:53:58;42.10;;;15.13;;
52414;SDS011;38340;52.964;6.086;2023-11-21T04:56:24;43.05;;;15.48;;
52414;SDS011;38340;52.964;6.086;2023-11-21T04:58:50;44.97;;;15.88;;
52414;SDS011;38340;52.964;6.086;2023-11-21T05:01:15;48.78;;;16.35;;
52414;SDS011;38340;52.964;6.086;2023-11-21T05:03:41;49.08;;;16.02;;
52414;SDS011;38340;52.964;6.086;2023-11-21T05:06:09;54.70;;;17.00;;
52414;SDS011;38340;52.964;6.086;2023-11-21T05:08:35;43.75;;;14.93;;
52414;SDS011;38340;52.964;6.086;2023-11-21T05:11:02;47.75;;;17.17;;
52414;SDS011;38340;52.964;6.086;2023-11-21T05:13:28;46.65;;;16.48;;
52414;SDS011;38340;52.964;6.086;2023-11-21T05:15:54;34.53;;;14.85;;
52414;SDS011;38340;52.964;6.086;2023-11-21T05:18:22;31.60;;;13.52;;
52414;SDS011;38340;52.964;6.086;2023-11-21T05:20:48;31.85;;;12.35;;
52414;SDS011;38340;52.964;6.086;2023-11-21T05:23:13;28.05;;;11.63;;
52414;SDS011;38340;52.964;6.086;2023-11-21T05:25:39;27.50;;;12.18;;
52414;SDS011;38340;52.964;6.086;2023-11-21T05:28:06;33.65;;;13.57;;
52414;SDS011;38340;52.964;6.086;2023-11-21T05:30:32;31.33;;;13.00;;
52414;SDS011;38340;52.964;6.086;2023-11-21T05:32:58;24.90;;;12.65;;
52414;SDS011;38340;52.964;6.086;2023-11-21T05:35:23;25.88;;;13.13;;
52414;SDS011;38340;52.964;6.086;2023-11-21T05:37:49;28.08;;;13.02;;
52414;SDS011;38340;52.964;6.086;2023-11-21T05:40:15;33.97;;;15.13;;
52414;SDS011;38340;52.964;6.086;2023-11-21T05:42:41;29.08;;;13.15;;
52414;SDS011;38340;52.964;6.086;2023-11-21T05:45:07;567.35;;;95.13;;
52414;SDS011;38340;52.964;6.086;2023-11-21T05:47:45;414.92;;;48.05;;
52414;SDS011;38340;52.964;6.086;2023-11-21T05:50:12;339.92;;;46.63;;
52414;SDS011;38340;52.964;6.086;2023-11-21T05:52:45;24.83;;;11.25;;
52414;SDS011;38340;52.964;6.086;2023-11-21T05:55:12;24.25;;;12.23;;
52414;SDS011;38340;52.964;6.086;2023-11-21T05:57:38;23.67;;;11.27;;
52414;SDS011;38340;52.964;6.086;2023-11-21T06:00:05;21.10;;;11.60;;
52414;SDS011;38340;52.964;6.086;2023-11-21T06:02:49;23.80;;;11.70;;
52414;SDS011;38340;52.964;6.086;2023-11-21T06:07:50;25.52;;;12.85;;
52414;SDS011;38340;52.964;6.086;2023-11-21T06:10:19;27.33;;;13.43;;
52414;SDS011;38340;52.964;6.086;2023-11-21T06:12:46;27.95;;;13.45;;
52414;SDS011;38340;52.964;6.086;2023-11-21T06:15:11;31.30;;;15.38;;
52414;SDS011;38340;52.964;6.086;2023-11-21T06:17:40;24.42;;;11.43;;
52414;SDS011;38340;52.964;6.086;2023-11-21T06:20:07;27.20;;;12.38;;
52414;SDS011;38340;52.964;6.086;2023-11-21T06:22:38;24.98;;;11.38;;
52414;SDS011;38340;52.964;6.086;2023-11-21T06:25:04;28.40;;;11.73;;
52414;SDS011;38340;52.964;6.086;2023-11-21T06:27:38;28.48;;;12.27;;
52414;SDS011;38340;52.964;6.086;2023-11-21T06:30:05;32.15;;;11.82;;
52414;SDS011;38340;52.964;6.086;2023-11-21T06:32:31;24.60;;;11.20;;
52414;SDS011;38340;52.964;6.086;2023-11-21T06:34:57;28.65;;;12.25;;
52414;SDS011;38340;52.964;6.086;2023-11-21T06:37:26;34.83;;;12.60;;
52414;SDS011;38340;52.964;6.086;2023-11-21T06:39:52;58.58;;;14.95;;
52414;SDS011;38340;52.964;6.086;2023-11-21T06:42:19;38.65;;;12.95;;
52414;SDS011;38340;52.964;6.086;2023-11-21T06:44:45;32.97;;;12.68;;
52414;SDS011;38340;52.964;6.086;2023-11-21T06:47:11;34.75;;;13.40;;
52414;SDS011;38340;52.964;6.086;2023-11-21T06:49:37;29.08;;;12.18;;
52414;SDS011;38340;52.964;6.086;2023-11-21T06:52:03;39.90;;;13.38;;
52414;SDS011;38340;52.964;6.086;2023-11-21T06:54:33;28.63;;;11.70;;
52414;SDS011;38340;52.964;6.086;2023-11-21T06:56:59;29.15;;;12.40;;
52414;SDS011;38340;52.964;6.086;2023-11-21T06:59:24;25.45;;;11.52;;
52414;SDS011;38340;52.964;6.086;2023-11-21T07:01:50;30.50;;;11.90;;
52414;SDS011;38340;52.964;6.086;2023-11-21T07:04:16;34.60;;;13.25;;
52414;SDS011;38340;52.964;6.086;2023-11-21T07:06:41;31.85;;;12.48;;
52414;SDS011;38340;52.964;6.086;2023-11-21T07:09:08;25.10;;;11.57;;
52414;SDS011;38340;52.964;6.086;2023-11-21T07:11:34;33.75;;;11.27;;
52414;SDS011;38340;52.964;6.086;2023-11-21T07:14:00;27.75;;;11.52;;
52414;SDS011;38340;52.964;6.086;2023-11-21T07:16:33;30.15;;;10.73;;
52414;SDS011;38340;52.964;6.086;2023-11-21T07:19:06;26.88;;;10.75;;
52414;SDS011;38340;52.964;6.086;2023-11-21T07:21:35;100.07;;;17.60;;
52414;SDS011;38340;52.964;6.086;2023-11-21T07:24:02;29.83;;;10.00;;
52414;SDS011;38340;52.964;6.086;2023-11-21T07:26:29;24.95;;;9.38;;
52414;SDS011;38340;52.964;6.086;2023-11-21T07:28:55;23.15;;;9.65;;
52414;SDS011;38340;52.964;6.086;2023-11-21T07:31:22;17.10;;;8.60;;
52414;SDS011;38340;52.964;6.086;2023-11-21T07:33:49;17.48;;;8.80;;
52414;SDS011;38340;52.964;6.086;2023-11-21T07:36:16;16.38;;;8.95;;
52414;SDS011;38340;52.964;6.086;2023-11-21T07:38:48;22.88;;;9.20;;
52414;SDS011;38340;52.964;6.086;2023-11-21T07:41:15;21.55;;;9.95;;
52414;SDS011;38340;52.964;6.086;2023-11-21T07:43:42;19.63;;;9.20;;
52414;SDS011;38340;52.964;6.086;2023-11-21T07:46:09;17.17;;;8.50;;
52414;SDS011;38340;52.964;6.086;2023-11-21T07:48:37;21.23;;;9.90;;
52414;SDS011;38340;52.964;6.086;2023-11-21T07:51:07;21.35;;;9.90;;
52414;SDS011;38340;52.964;6.086;2023-11-21T07:53:33;17.20;;;8.45;;
52414;SDS011;38340;52.964;6.086;2023-11-21T07:56:04;19.33;;;9.32;;
52414;SDS011;38340;52.964;6.086;2023-11-21T07:58:32;20.50;;;9.60;;
52414;SDS011;38340;52.964;6.086;2023-11-21T08:00:59;28.35;;;10.15;;
52414;SDS011;38340;52.964;6.086;2023-11-21T08:03:25;25.08;;;9.85;;
52414;SDS011;38340;52.964;6.086;2023-11-21T08:05:51;21.10;;;9.43;;
52414;SDS011;38340;52.964;6.086;2023-11-21T08:08:17;21.77;;;10.00;;
52414;SDS011;38340;52.964;6.086;2023-11-21T08:10:44;19.85;;;9.77;;
52414;SDS011;38340;52.964;6.086;2023-11-21T08:13:21;22.00;;;9.05;;
52414;SDS011;38340;52.964;6.086;2023-11-21T08:15:47;23.70;;;10.63;;
52414;SDS011;38340;52.964;6.086;2023-11-21T08:18:13;19.95;;;10.00;;
52414;SDS011;38340;52.964;6.086;2023-11-21T08:20:40;21.45;;;9.90;;
52414;SDS011;38340;52.964;6.086;2023-11-21T08:23:05;22.40;;;9.98;;
52414;SDS011;38340;52.964;6.086;2023-11-21T08:25:31;20.55;;;9.38;;
52414;SDS011;38340;52.964;6.086;2023-11-21T08:27:58;21.42;;;10.45;;
52414;SDS011;38340;52.964;6.086;2023-11-21T08:30:24;20.42;;;9.45;;
52414;SDS011;38340;52.964;6.086;2023-11-21T08:32:50;21.63;;;10.30;;
52414;SDS011;38340;52.964;6.086;2023-11-21T08:35:18;22.55;;;9.63;;
52414;SDS011;38340;52.964;6.086;2023-11-21T08:37:44;21.75;;;8.95;;
52414;SDS011;38340;52.964;6.086;2023-11-21T08:40:10;25.27;;;9.23;;
52414;SDS011;38340;52.964;6.086;2023-11-21T08:42:41;25.98;;;10.80;;
52414;SDS011;38340;52.964;6.086;2023-11-21T08:45:08;35.28;;;12.23;;
52414;SDS011;38340;52.964;6.086;2023-11-21T08:47:34;18.50;;;9.98;;
52414;SDS011;38340;52.964;6.086;2023-11-21T08:50:01;25.30;;;11.52;;
52414;SDS011;38340;52.964;6.086;2023-11-21T08:52:27;22.27;;;10.80;;
52414;SDS011;38340;52.964;6.086;2023-11-21T08:54:53;23.45;;;11.48;;
52414;SDS011;38340;52.964;6.086;2023-11-21T08:57:24;28.67;;;12.77;;
52414;SDS011;38340;52.964;6.086;2023-11-21T08:59:50;27.27;;;12.68;;
52414;SDS011;38340;52.964;6.086;2023-11-21T09:02:25;29.40;;;15.13;;
52414;SDS011;38340;52.964;6.086;2023-11-21T09:04:51;39.20;;;18.27;;
52414;SDS011;38340;52.964;6.086;2023-11-21T09:07:20;30.40;;;15.18;;
52414;SDS011;38340;52.964;6.086;2023-11-21T09:09:46;31.13;;;14.63;;
52414;SDS011;38340;52.964;6.086;2023-11-21T09:12:13;26.83;;;13.25;;
52414;SDS011;38340;52.964;6.086;2023-11-21T09:14:39;27.55;;;13.43;;
52414;SDS011;38340;52.964;6.086;2023-11-21T09:17:05;24.65;;;12.60;;
52414;SDS011;38340;52.964;6.086;2023-11-21T09:19:39;24.10;;;12.93;;
52414;SDS011;38340;52.964;6.086;2023-11-21T09:22:05;25.25;;;12.85;;
52414;SDS011;38340;52.964;6.086;2023-11-21T09:24:31;27.67;;;12.73;;
52414;SDS011;38340;52.964;6.086;2023-11-21T09:26:58;26.25;;;12.57;;
52414;SDS011;38340;52.964;6.086;2023-11-21T09:29:25;22.98;;;12.23;;
52414;SDS011;38340;52.964;6.086;2023-11-21T09:31:54;24.50;;;11.70;;
52414;SDS011;38340;52.964;6.086;2023-11-21T09:34:20;22.33;;;11.20;;
52414;SDS011;38340;52.964;6.086;2023-11-21T09:36:46;25.90;;;10.88;;
52414;SDS011;38340;52.964;6.086;2023-11-21T09:39:13;19.48;;;10.35;;
52414;SDS011;38340;52.964;6.086;2023-11-21T09:41:43;26.48;;;12.70;;
52414;SDS011;38340;52.964;6.086;2023-11-21T09:44:17;27.90;;;13.68;;
52414;SDS011;38340;52.964;6.086;2023-11-21T09:46:47;28.98;;;15.27;;
52414;SDS011;38340;52.964;6.086;2023-11-21T09:49:17;38.63;;;16.02;;
52414;SDS011;38340;52.964;6.086;2023-11-21T09:51:47;30.35;;;15.30;;
52414;SDS011;38340;52.964;6.086;2023-11-21T09:54:15;37.00;;;16.98;;
52414;SDS011;38340;52.964;6.086;2023-11-21T09:56:42;30.48;;;14.70;;
52414;SDS011;38340;52.964;6.086;2023-11-21T09:59:10;31.65;;;13.40;;
52414;SDS011;38340;52.964;6.086;2023-11-21T10:01:38;28.55;;;14.40;;
52414;SDS011;38340;52.964;6.086;2023-11-21T10:04:07;26.20;;;13.07;;
52414;SDS011;38340;52.964;6.086;2023-11-21T10:06:39;29.83;;;14.98;;
52414;SDS011;38340;52.964;6.086;2023-11-21T10:09:11;31.40;;;16.33;;
52414;SDS011;38340;52.964;6.086;2023-11-21T10:11:39;30.48;;;15.13;;
52414;SDS011;38340;52.964;6.086;2023-11-21T10:14:12;33.25;;;15.43;;
52414;SDS011;38340;52.964;6.086;2023-11-21T10:16:39;28.02;;;14.32;;
52414;SDS011;38340;52.964;6.086;2023-11-21T10:19:08;28.67;;;14.75;;
52414;SDS011;38340;52.964;6.086;2023-11-21T10:21:35;27.48;;;14.25;;
52414;SDS011;38340;52.964;6.086;2023-11-21T10:24:03;31.73;;;16.05;;
52414;SDS011;38340;52.964;6.086;2023-11-21T10:26:29;28.38;;;14.98;;
52414;SDS011;38340;52.964;6.086;2023-11-21T10:28:57;29.77;;;15.35;;
52414;SDS011;38340;52.964;6.086;2023-11-21T10:31:27;26.50;;;13.75;;
52414;SDS011;38340;52.964;6.086;2023-11-21T10:33:53;26.88;;;14.00;;
52414;SDS011;38340;52.964;6.086;2023-11-21T10:36:28;31.95;;;15.40;;
52414;SDS011;38340;52.964;6.086;2023-11-21T10:38:54;26.98;;;15.57;;
52414;SDS011;38340;52.964;6.086;2023-11-21T10:41:23;34.97;;;15.23;;
52414;SDS011;38340;52.964;6.086;2023-11-21T10:43:52;26.63;;;14.25;;
52414;SDS011;38340;52.964;6.086;2023-11-21T10:46:19;27.75;;;16.05;;
52414;SDS011;38340;52.964;6.086;2023-11-21T10:48:45;26.92;;;14.18;;
52414;SDS011;38340;52.964;6.086;2023-11-21T10:51:16;26.80;;;14.65;;
52414;SDS011;38340;52.964;6.086;2023-11-21T10:53:44;23.48;;;13.02;;
52414;SDS011;38340;52.964;6.086;2023-11-21T10:56:10;25.15;;;15.57;;
52414;SDS011;38340;52.964;6.086;2023-11-21T10:58:45;25.70;;;15.98;;
52414;SDS011;38340;52.964;6.086;2023-11-21T11:01:11;22.77;;;13.88;;
52414;SDS011;38340;52.964;6.086;2023-11-21T11:03:39;22.20;;;12.80;;
52414;SDS011;38340;52.964;6.086;2023-11-21T11:06:06;22.17;;;13.63;;
52414;SDS011;38340;52.964;6.086;2023-11-21T11:08:40;18.77;;;12.32;;
52414;SDS011;38340;52.964;6.086;2023-11-21T11:11:06;21.35;;;12.98;;
52414;SDS011;38340;52.964;6.086;2023-11-21T11:13:32;21.40;;;14.00;;
52414;SDS011;38340;52.964;6.086;2023-11-21T11:15:58;20.10;;;12.55;;
52414;SDS011;38340;52.964;6.086;2023-11-21T11:18:26;21.70;;;14.45;;
52414;SDS011;38340;52.964;6.086;2023-11-21T11:21:27;20.50;;;11.68;;
52414;SDS011;38340;52.964;6.086;2023-11-21T11:24:28;16.75;;;11.43;;
52414;SDS011;38340;52.964;6.086;2023-11-21T11:27:29;16.88;;;11.40;;
52414;SDS011;38340;52.964;6.086;2023-11-21T11:30:09;17.00;;;11.93;;
52414;SDS011;38340;52.964;6.086;2023-11-21T11:38:21;20.27;;;13.52;;
52414;SDS011;38340;52.964;6.086;2023-11-21T11:40:48;15.82;;;10.07;;
52414;SDS011;38340;52.964;6.086;2023-11-21T11:43:24;18.77;;;10.75;;
52414;SDS011;38340;52.964;6.086;2023-11-21T11:45:50;14.60;;;9.45;;
52414;SDS011;38340;52.964;6.086;2023-11-21T11:48:18;13.43;;;8.82;;
52414;SDS011;38340;52.964;6.086;2023-11-21T11:51:02;12.88;;;9.18;;
52414;SDS011;38340;52.964;6.086;2023-11-21T11:53:43;13.57;;;8.48;;
52414;SDS011;38340;52.964;6.086;2023-11-21T11:58:57;12.75;;;8.55;;
52414;SDS011;38340;52.964;6.086;2023-11-21T12:01:25;14.52;;;8.50;;
52414;SDS011;38340;52.964;6.086;2023-11-21T12:06:40;15.93;;;10.32;;
52414;SDS011;38340;52.964;6.086;2023-11-21T12:09:07;16.52;;;10.77;;
52414;SDS011;38340;52.964;6.086;2023-11-21T12:11:40;16.33;;;11.63;;
52414;SDS011;38340;52.964;6.086;2023-11-21T12:14:09;12.45;;;8.95;;
52414;SDS011;38340;52.964;6.086;2023-11-21T12:16:35;11.15;;;7.22;;
52414;SDS011;38340;52.964;6.086;2023-11-21T12:19:00;12.57;;;7.93;;
52414;SDS011;38340;52.964;6.086;2023-11-21T12:21:26;10.85;;;7.53;;
52414;SDS011;38340;52.964;6.086;2023-11-21T12:23:53;11.82;;;7.90;;
52414;SDS011;38340;52.964;6.086;2023-11-21T12:26:19;11.38;;;7.70;;
52414;SDS011;38340;52.964;6.086;2023-11-21T12:28:55;9.18;;;6.70;;
52414;SDS011;38340;52.964;6.086;2023-11-21T12:31:21;12.20;;;7.63;;
52414;SDS011;38340;52.964;6.086;2023-11-21T12:33:47;12.90;;;7.15;;
52414;SDS011;38340;52.964;6.086;2023-11-21T12:36:13;11.85;;;7.65;;
52414;SDS011;38340;52.964;6.086;2023-11-21T12:38:39;10.82;;;6.70;;
52414;SDS011;38340;52.964;6.086;2023-11-21T12:41:05;10.02;;;6.47;;
52414;SDS011;38340;52.964;6.086;2023-11-21T12:43:31;9.48;;;6.93;;
52414;SDS011;38340;52.964;6.086;2023-11-21T12:46:04;10.95;;;6.63;;
52414;SDS011;38340;52.964;6.086;2023-11-21T12:48:31;9.27;;;6.03;;
52414;SDS011;38340;52.964;6.086;2023-11-21T12:50:57;7.95;;;5.85;;
52414;SDS011;38340;52.964;6.086;2023-11-21T12:53:25;9.43;;;5.78;;
52414;SDS011;38340;52.964;6.086;2023-11-21T12:55:51;9.95;;;6.60;;
52414;SDS011;38340;52.964;6.086;2023-11-21T12:58:22;10.02;;;5.78;;
52414;SDS011;38340;52.964;6.086;2023-11-21T13:00:50;9.35;;;6.45;;
52414;SDS011;38340;52.964;6.086;2023-11-21T13:03:19;9.30;;;5.95;;
52414;SDS011;38340;52.964;6.086;2023-11-21T13:05:50;9.52;;;6.45;;
52414;SDS011;38340;52.964;6.086;2023-11-21T13:08:19;9.18;;;6.00;;
52414;SDS011;38340;52.964;6.086;2023-11-21T13:10:48;8.70;;;6.28;;
52414;SDS011;38340;52.964;6.086;2023-11-21T13:13:16;9.75;;;5.90;;
52414;SDS011;38340;52.964;6.086;2023-11-21T13:16:01;9.75;;;5.32;;
52414;SDS011;38340;52.964;6.086;2023-11-21T13:18:31;7.93;;;5.57;;
52414;SDS011;38340;52.964;6.086;2023-11-21T13:20:57;9.85;;;5.68;;
52414;SDS011;38340;52.964;6.086;2023-11-21T13:23:25;8.98;;;5.40;;
52414;SDS011;38340;52.964;6.086;2023-11-21T13:25:52;7.65;;;5.55;;
52414;SDS011;38340;52.964;6.086;2023-11-21T13:28:18;8.93;;;5.40;;
52414;SDS011;38340;52.964;6.086;2023-11-21T13:30:46;10.32;;;6.50;;
52414;SDS011;38340;52.964;6.086;2023-11-21T13:33:13;10.82;;;6.57;;
52414;SDS011;38340;52.964;6.086;2023-11-21T13:35:43;9.57;;;5.90;;
52414;SDS011;38340;52.964;6.086;2023-11-21T13:38:14;8.15;;;5.55;;
52414;SDS011;38340;52.964;6.086;2023-11-21T13:40:42;8.85;;;5.38;;
52414;SDS011;38340;52.964;6.086;2023-11-21T13:43:18;8.77;;;5.97;;
52414;SDS011;38340;52.964;6.086;2023-11-21T13:45:49;9.02;;;5.30;;
52414;SDS011;38340;52.964;6.086;2023-11-21T13:48:20;8.23;;;5.18;;
52414;SDS011;38340;52.964;6.086;2023-11-21T13:50:53;9.18;;;5.47;;
52414;SDS011;38340;52.964;6.086;2023-11-21T13:53:24;10.18;;;4.93;;
52414;SDS011;38340;52.964;6.086;2023-11-21T13:55:50;7.47;;;5.32;;
52414;SDS011;38340;52.964;6.086;2023-11-21T13:58:19;9.25;;;5.65;;
52414;SDS011;38340;52.964;6.086;2023-11-21T14:00:49;7.95;;;5.35;;
52414;SDS011;38340;52.964;6.086;2023-11-21T14:03:22;8.50;;;5.43;;
52414;SDS011;38340;52.964;6.086;2023-11-21T14:05:50;8.48;;;5.35;;
52414;SDS011;38340;52.964;6.086;2023-11-21T14:08:22;8.13;;;5.28;;
52414;SDS011;38340;52.964;6.086;2023-11-21T14:10:53;10.38;;;5.47;;
52414;SDS011;38340;52.964;6.086;2023-11-21T14:13:28;8.25;;;5.65;;
52414;SDS011;38340;52.964;6.086;2023-11-21T14:15:54;7.97;;;5.60;;
52414;SDS011;38340;52.964;6.086;2023-11-21T14:18:25;9.45;;;5.70;;
52414;SDS011;38340;52.964;6.086;2023-11-21T14:21:15;9.50;;;6.00;;
52414;SDS011;38340;52.964;6.086;2023-11-21T14:23:41;9.27;;;5.80;;
52414;SDS011;38340;52.964;6.086;2023-11-21T14:26:09;7.72;;;5.88;;
52414;SDS011;38340;52.964;6.086;2023-11-21T14:28:38;10.00;;;5.97;;
52414;SDS011;38340;52.964;6.086;2023-11-21T14:31:04;9.10;;;6.53;;
52414;SDS011;38340;52.964;6.086;2023-11-21T14:33:30;10.05;;;7.15;;
52414;SDS011;38340;52.964;6.086;2023-11-21T14:35:55;9.25;;;6.13;;
52414;SDS011;38340;52.964;6.086;2023-11-21T14:38:22;9.40;;;6.40;;
52414;SDS011;38340;52.964;6.086;2023-11-21T14:40:48;11.25;;;6.78;;
52414;SDS011;38340;52.964;6.086;2023-11-21T14:43:14;10.40;;;6.50;;
52414;SDS011;38340;52.964;6.086;2023-11-21T14:45:41;9.57;;;6.75;;